Time;durP1;ratioP1;P1;durP2;ratioP2;P2;SDS_P1;SDS_P2;PMS_P1;PMS_P2;Temp;Humidity;BMP_temperature;BMP_pressure;BME280_temperature;BME280_humidity;BME280_pressure;Samples;Min_cycle;Max_cycle;Signal;HPM_P1;HPM_P2
2022/03/03 00:00:47;;;;;;;34.90;23.45;;;;;;;1.43;71.21;101860.91;5074903;28;20098;-67
2022/03/03 00:03:12;;;;;;;34.75;24.02;;;;;;;1.53;72.23;101860.63;5074798;28;20024;-67
2022/03/03 00:05:38;;;;;;;34.67;24.17;;;;;;;1.45;72.91;101864.50;5075116;28;20025;-67
2022/03/03 00:08:04;;;;;;;35.58;24.10;;;;;;;1.39;69.17;101859.84;5075130;28;20025;-68
2022/03/03 00:10:29;;;;;;;33.83;22.52;;;;;;;1.49;68.30;101853.47;5074855;28;20032;-67
2022/03/03 00:12:54;;;;;;;36.15;23.77;;;;;;;1.47;67.28;101852.44;5074921;28;20414;-67
2022/03/03 00:15:20;;;;;;;35.55;23.15;;;;;;;1.47;69.74;101852.44;5074738;28;20107;-67
2022/03/03 00:17:45;;;;;;;34.25;23.48;;;;;;;1.41;69.95;101847.78;5074790;28;20158;-68
2022/03/03 00:20:11;;;;;;;35.70;23.73;;;;;;;1.32;70.91;101842.94;5074743;28;20475;-66
2022/03/03 00:22:36;;;;;;;36.83;24.08;;;;;;;1.25;71.17;101843.38;5074615;28;20467;-67
2022/03/03 00:25:02;;;;;;;35.97;24.33;;;;;;;1.26;72.27;101850.41;5075006;28;20031;-67
2022/03/03 00:27:27;;;;;;;37.15;25.17;;;;;;;1.16;72.79;101848.06;5070496;28;20432;-67
2022/03/03 00:29:53;;;;;;;36.08;24.75;;;;;;;1.12;72.59;101849.63;5074439;28;20025;-67
2022/03/03 00:32:18;;;;;;;35.50;24.08;;;;;;;1.06;72.92;101840.53;5074498;28;20426;-67
2022/03/03 00:34:44;;;;;;;36.55;23.70;;;;;;;1.12;73.13;101854.81;5074686;28;20034;-67
2022/03/03 00:37:09;;;;;;;36.17;24.67;;;;;;;1.10;73.17;101853.81;5074428;28;20021;-68
2022/03/03 00:39:35;;;;;;;36.13;24.30;;;;;;;1.08;72.67;101849.31;5074546;28;20387;-68
2022/03/03 00:42:00;;;;;;;34.25;22.92;;;;;;;1.03;72.08;101846.44;5074326;28;20028;-68
2022/03/03 00:44:25;;;;;;;35.40;24.08;;;;;;;0.95;72.89;101840.78;5074263;28;20078;-68
2022/03/03 00:46:50;;;;;;;35.63;24.15;;;;;;;0.99;73.85;101850.59;5074283;28;20034;-69
2022/03/03 00:49:16;;;;;;;35.35;24.80;;;;;;;0.94;74.09;101843.31;5074254;28;20132;-70
2022/03/03 00:51:41;;;;;;;34.60;24.27;;;;;;;0.87;74.04;101839.44;5072925;28;20039;-71
2022/03/03 00:54:07;;;;;;;34.90;24.02;;;;;;;0.93;74.64;101839.78;5074434;28;20032;-69
2022/03/03 00:56:33;;;;;;;35.95;24.83;;;;;;;0.98;74.81;101846.19;5073734;28;20407;-69
2022/03/03 00:58:58;;;;;;;35.72;24.23;;;;;;;1.02;74.82;101842.03;5070271;28;20040;-71
2022/03/03 01:01:24;;;;;;;35.40;24.38;;;;;;;0.98;75.57;101830.56;5070716;28;20064;-68
2022/03/03 01:03:49;;;;;;;36.55;24.88;;;;;;;0.98;75.99;101834.88;5073737;28;20392;-69
2022/03/03 01:06:14;;;;;;;37.75;24.17;;;;;;;0.92;73.84;101832.81;5074155;28;20073;-67
2022/03/03 01:08:40;;;;;;;35.38;24.05;;;;;;;0.80;74.26;101830.38;5073558;28;20027;-69
2022/03/03 01:11:06;;;;;;;37.40;23.95;;;;;;;0.75;74.46;101830.91;5073929;28;20032;-69
2022/03/03 01:13:32;;;;;;;35.67;24.10;;;;;;;0.81;74.95;101832.16;5074130;28;20021;-68
2022/03/03 01:15:57;;;;;;;36.67;25.00;;;;;;;0.69;74.68;101842.72;5073545;28;20085;-69
2022/03/03 01:18:23;;;;;;;37.15;24.85;;;;;;;0.69;75.09;101837.53;5073426;28;20024;-69
2022/03/03 01:20:49;;;;;;;36.10;24.48;;;;;;;0.66;76.23;101831.25;5073923;28;20032;-70
2022/03/03 01:23:14;;;;;;;35.60;24.35;;;;;;;0.56;77.32;101835.00;5073437;28;20098;-70
2022/03/03 01:25:40;;;;;;;35.33;24.23;;;;;;;0.56;77.99;101840.19;5071253;28;20424;-69
2022/03/03 01:28:05;;;;;;;36.92;24.77;;;;;;;0.50;76.99;101829.41;5073457;28;20024;-68
2022/03/03 01:30:31;;;;;;;37.25;24.90;;;;;;;0.59;77.38;101835.16;5073617;28;20452;-68
2022/03/03 01:32:56;;;;;;;36.85;25.40;;;;;;;0.56;77.91;101821.09;5073412;28;20024;-68
2022/03/03 01:35:21;;;;;;;36.35;24.42;;;;;;;0.50;77.20;101826.81;5073525;28;20027;-69
2022/03/03 01:37:47;;;;;;;36.05;24.48;;;;;;;0.42;77.15;101820.25;5073208;28;20086;-68
2022/03/03 01:40:13;;;;;;;35.80;24.67;;;;;;;0.37;78.13;101813.88;5073335;28;20027;-70
2022/03/03 01:42:38;;;;;;;36.28;24.98;;;;;;;0.30;78.95;101810.88;5073032;28;20059;-68
2022/03/03 01:45:04;;;;;;;36.60;24.95;;;;;;;0.23;79.58;101800.88;5073234;28;20033;-68
2022/03/03 01:47:30;;;;;;;37.50;25.85;;;;;;;0.12;79.07;101800.25;5073373;28;20036;-69
2022/03/03 01:49:57;;;;;;;36.38;25.70;;;;;;;0.11;79.68;101802.75;5072823;28;20025;-69
2022/03/03 01:52:23;;;;;;;37.28;26.23;;;;;;;-0.01;79.46;101798.56;5072986;28;20082;-69
2022/03/03 01:54:49;;;;;;;37.42;26.20;;;;;;;0.09;80.57;101793.97;5069375;28;20032;-67
2022/03/03 01:57:18;;;;;;;37.28;25.75;;;;;;;0.12;81.00;101800.25;5072680;28;20044;-68
2022/03/03 01:59:44;;;;;;;38.30;25.92;;;;;;;-0.04;80.97;101795.78;5072809;28;20103;-67
2022/03/03 02:02:10;;;;;;;35.50;24.45;;;;;;;-0.01;82.14;101790.78;5072649;28;20070;-67
2022/03/03 02:04:40;;;;;;;37.92;26.25;;;;;;;-0.21;82.71;101796.44;5071110;28;20062;-67
2022/03/03 02:07:10;;;;;;;37.05;25.83;;;;;;;-0.31;84.06;101786.25;5072554;28;20035;-67
2022/03/03 02:09:36;;;;;;;37.95;25.45;;;;;;;-0.38;84.48;101784.94;5072807;28;20486;-68
2022/03/03 02:12:03;;;;;;;37.05;25.25;;;;;;;-0.45;85.51;101778.50;5073101;28;20060;-67
2022/03/03 02:14:28;;;;;;;37.83;26.40;;;;;;;-0.46;86.29;101779.28;5072607;28;20040;-68
2022/03/03 02:16:53;;;;;;;37.05;25.90;;;;;;;-0.38;86.90;101788.47;5072810;28;20032;-67
2022/03/03 02:19:20;;;;;;;37.20;25.05;;;;;;;-0.42;86.77;101783.88;5072530;28;20107;-71
2022/03/03 02:21:51;;;;;;;37.55;25.73;;;;;;;-0.53;86.96;101779.69;5072522;28;20012;-71
2022/03/03 02:24:20;;;;;;;37.05;25.75;;;;;;;-0.57;87.31;101773.41;5072740;28;20036;-69
2022/03/03 02:26:46;;;;;;;38.05;25.75;;;;;;;-0.50;88.69;101772.09;5073006;28;20044;-68
2022/03/03 02:29:11;;;;;;;38.25;26.45;;;;;;;-0.49;89.02;101762.59;5072339;28;20468;-69
2022/03/03 02:31:38;;;;;;;38.20;26.80;;;;;;;-0.58;88.80;101760.31;5072430;28;20074;-69
2022/03/03 02:34:03;;;;;;;39.00;26.73;;;;;;;-0.54;88.72;101767.47;5072523;28;20086;-72
2022/03/03 02:36:29;;;;;;;38.80;25.92;;;;;;;-0.55;88.54;101771.78;5072455;28;20028;-68
2022/03/03 02:39:00;;;;;;;38.47;27.10;;;;;;;-0.60;88.79;101768.00;5072650;28;20433;-68
2022/03/03 02:41:27;;;;;;;37.92;26.55;;;;;;;-0.62;88.64;101773.91;5072715;28;20052;-68
2022/03/03 02:43:53;;;;;;;37.53;26.50;;;;;;;-0.60;88.93;101767.09;5072239;28;20032;-72
2022/03/03 02:46:19;;;;;;;38.05;26.60;;;;;;;-0.66;87.58;101770.19;5072226;28;20452;-69
2022/03/03 02:48:44;;;;;;;38.38;26.40;;;;;;;-0.66;86.94;101769.31;5072332;28;20029;-69
2022/03/03 02:51:10;;;;;;;38.05;26.90;;;;;;;-0.61;88.39;101765.28;5072303;28;20047;-70
2022/03/03 02:53:36;;;;;;;38.78;26.75;;;;;;;-0.65;87.94;101771.13;5072704;28;20519;-69
2022/03/03 02:56:03;;;;;;;36.67;26.13;;;;;;;-0.65;88.11;101768.53;5072263;28;20120;-72
2022/03/03 02:58:28;;;;;;;38.95;26.27;;;;;;;-0.69;88.71;101762.22;5072198;28;20027;-69
2022/03/03 03:00:54;;;;;;;37.97;26.25;;;;;;;-0.68;88.17;101758.81;5072472;28;20082;-72
2022/03/03 03:03:19;;;;;;;40.00;27.75;;;;;;;-0.76;87.99;101760.00;5068522;28;20028;-73
2022/03/03 03:05:46;;;;;;;38.20;26.83;;;;;;;-0.79;88.85;101758.09;5072340;28;20029;-69
2022/03/03 03:08:12;;;;;;;39.53;27.20;;;;;;;-0.82;90.06;101765.72;5072352;28;20024;-69
2022/03/03 03:10:38;;;;;;;39.42;27.30;;;;;;;-0.89;90.46;101768.69;5071954;28;20039;-69
2022/03/03 03:13:05;;;;;;;38.72;27.25;;;;;;;-0.96;90.71;101764.81;5072374;28;20052;-67
2022/03/03 03:15:31;;;;;;;39.15;26.85;;;;;;;-1.01;90.94;101761.00;5075361;28;20569;-67
2022/03/03 03:18:17;;;;;;;38.92;27.38;;;;;;;-1.09;91.00;101763.09;5071837;28;20418;-67
2022/03/03 03:20:44;;;;;;;37.28;26.50;;;;;;;-1.05;91.47;101764.19;5074135;28;20504;-67
2022/03/03 03:23:12;;;;;;;40.40;27.17;;;;;;;-1.14;91.57;101758.41;5075797;28;20029;-67
2022/03/03 03:25:37;;;;;;;40.38;27.67;;;;;;;-1.13;92.43;101753.31;5075803;28;20027;-67
2022/03/03 03:28:05;;;;;;;41.05;28.63;;;;;;;-1.04;92.80;101752.13;5075555;28;20025;-67
2022/03/03 03:30:31;;;;;;;40.65;28.48;;;;;;;-1.15;92.52;101748.81;5075505;28;20111;-67
2022/03/03 03:32:56;;;;;;;40.80;28.35;;;;;;;-1.21;92.84;101743.22;5071520;28;20056;-67
2022/03/03 03:35:22;;;;;;;39.53;28.25;;;;;;;-1.35;92.82;101740.63;5075549;28;20048;-67
2022/03/03 03:37:48;;;;;;;40.50;28.02;;;;;;;-1.30;93.96;101738.31;5075578;28;20028;-67
2022/03/03 03:40:14;;;;;;;38.80;27.10;;;;;;;-1.32;95.27;101737.34;5075608;28;20036;-67
2022/03/03 03:42:40;;;;;;;38.90;28.15;;;;;;;-1.30;95.88;101743.50;5075376;28;20460;-66
2022/03/03 03:45:06;;;;;;;40.15;28.23;;;;;;;-1.36;95.98;101743.09;5075284;28;20028;-67
2022/03/03 03:47:32;;;;;;;40.63;27.63;;;;;;;-1.38;95.93;101736.91;5075543;28;20017;-67
2022/03/03 03:49:58;;;;;;;38.97;27.95;;;;;;;-1.38;96.60;101735.22;5075408;28;20110;-66
2022/03/03 03:52:23;;;;;;;39.45;27.48;;;;;;;-1.36;97.60;101731.03;5075326;28;20032;-66
2022/03/03 03:54:49;;;;;;;40.00;27.95;;;;;;;-1.34;98.47;101734.66;5075312;28;20491;-66
2022/03/03 03:57:15;;;;;;;41.03;28.60;;;;;;;-1.35;99.03;101724.16;5074877;28;20073;-66
2022/03/03 03:59:40;;;;;;;40.10;28.55;;;;;;;-1.44;99.03;101722.75;5075081;28;20036;-72
2022/03/03 04:02:06;;;;;;;41.13;29.17;;;;;;;-1.52;99.54;101721.31;5074699;28;20099;-70
2022/03/03 04:04:31;;;;;;;40.15;28.67;;;;;;;-1.50;100.00;101722.34;5073143;28;20032;-70
2022/03/03 04:06:56;;;;;;;39.22;27.88;;;;;;;-1.60;100.00;101733.78;5075023;28;20035;-69
2022/03/03 04:09:22;;;;;;;40.50;28.20;;;;;;;-1.60;100.00;101733.78;5075330;28;20024;-69
2022/03/03 04:11:47;;;;;;;39.97;28.80;;;;;;;-1.60;100.00;101732.88;5074884;28;20078;-69
2022/03/03 04:14:12;;;;;;;42.42;29.02;;;;;;;-1.64;100.00;101746.44;5075002;28;20565;-70
2022/03/03 04:16:38;;;;;;;39.97;28.15;;;;;;;-1.61;100.00;101736.28;5074812;28;20031;-72
2022/03/03 04:19:03;;;;;;;39.70;27.98;;;;;;;-1.65;100.00;101729.06;5074891;28;20529;-69
2022/03/03 04:21:31;;;;;;;41.38;29.35;;;;;;;-1.69;100.00;101727.06;5074915;28;20029;-72
2022/03/03 04:23:57;;;;;;;39.75;27.65;;;;;;;-1.79;100.00;101721.25;5074494;28;20029;-68
2022/03/03 04:26:22;;;;;;;40.85;28.55;;;;;;;-1.73;100.00;101714.69;5074342;28;20017;-71
2022/03/03 04:28:48;;;;;;;40.42;28.30;;;;;;;-1.81;100.00;101717.66;5075008;28;20020;-71
2022/03/03 04:31:13;;;;;;;42.33;28.80;;;;;;;-1.84;100.00;101712.25;5074697;28;20115;-70
2022/03/03 04:33:38;;;;;;;39.40;27.75;;;;;;;-1.88;100.00;101706.75;5074407;28;20036;-69
2022/03/03 04:36:05;;;;;;;42.70;29.20;;;;;;;-1.86;100.00;101705.19;5074801;28;20041;-69
2022/03/03 04:38:30;;;;;;;41.45;28.88;;;;;;;-1.85;100.00;101706.97;5074638;28;20078;-70
2022/03/03 04:40:55;;;;;;;40.83;28.98;;;;;;;-1.88;100.00;101702.47;5074601;28;20028;-69
2022/03/03 04:43:21;;;;;;;42.78;30.38;;;;;;;-1.90;100.00;101706.66;5074674;28;20021;-71
2022/03/03 04:45:46;;;;;;;43.72;31.25;;;;;;;-1.91;100.00;101704.84;5074477;28;20021;-72
2022/03/03 04:48:11;;;;;;;43.35;30.13;;;;;;;-1.92;100.00;101695.31;5074131;28;20418;-72
2022/03/03 04:50:37;;;;;;;41.67;29.15;;;;;;;-1.94;100.00;101695.19;5074037;28;20036;-73
2022/03/03 04:53:02;;;;;;;80.30;53.20;;;;;;;-1.95;100.00;101692.50;5072727;28;20060;-67
2022/03/03 04:55:28;;;;;;;78.18;52.80;;;;;;;-1.90;100.00;101688.50;5074154;28;20148;-67
2022/03/03 04:57:54;;;;;;;96.30;59.10;;;;;;;-1.84;100.00;101691.50;5074084;28;20020;-67
2022/03/03 05:00:19;;;;;;;81.47;50.88;;;;;;;-1.83;100.00;101692.44;5072263;28;20449;-67
2022/03/03 05:02:45;;;;;;;68.57;47.15;;;;;;;-1.94;100.00;101695.19;5073765;28;20016;-67
2022/03/03 05:05:10;;;;;;;71.85;48.22;;;;;;;-1.98;100.00;101690.59;5073832;28;20055;-69
2022/03/03 05:07:35;;;;;;;58.13;40.38;;;;;;;-1.98;100.00;101697.44;5073646;28;20442;-67
2022/03/03 05:10:01;;;;;;;50.53;36.05;;;;;;;-2.07;100.00;101694.22;5073824;28;20036;-67
2022/03/03 05:12:26;;;;;;;52.33;37.70;;;;;;;-2.07;100.00;101699.41;5073652;28;20028;-68
2022/03/03 05:14:52;;;;;;;44.58;31.15;;;;;;;-2.01;100.00;101697.25;5073607;28;20029;-68
2022/03/03 05:17:17;;;;;;;42.90;30.45;;;;;;;-2.14;100.00;101699.00;5073836;28;20078;-67
2022/03/03 05:19:43;;;;;;;43.60;30.33;;;;;;;-2.14;100.00;101699.00;5073791;28;20029;-68
2022/03/03 05:22:08;;;;;;;43.55;30.23;;;;;;;-2.23;100.00;101698.34;5073672;28;20036;-67
2022/03/03 05:24:34;;;;;;;43.70;30.25;;;;;;;-2.19;100.00;101700.34;5073489;28;20551;-69
2022/03/03 05:26:59;;;;;;;42.53;28.98;;;;;;;-2.15;100.00;101702.38;5073334;28;20032;-68
2022/03/03 05:29:27;;;;;;;41.42;29.05;;;;;;;-2.15;100.00;101704.06;5073498;28;20142;-67
2022/03/03 05:31:52;;;;;;;44.63;31.02;;;;;;;-2.20;100.00;101703.75;5073728;28;20178;-67
2022/03/03 05:34:18;;;;;;;43.72;30.83;;;;;;;-2.20;100.00;101700.25;5073167;28;20533;-67
2022/03/03 05:36:43;;;;;;;43.67;30.42;;;;;;;-2.21;100.00;101699.38;5071440;28;20113;-68
2022/03/03 05:39:09;;;;;;;44.03;30.65;;;;;;;-2.19;100.00;101705.53;5073139;28;20028;-67
2022/03/03 05:41:34;;;;;;;43.67;29.90;;;;;;;-2.20;100.00;101711.53;5071328;28;20074;-67
2022/03/03 05:44:01;;;;;;;42.42;29.20;;;;;;;-2.25;100.00;101712.00;5073320;28;20056;-66
2022/03/03 05:46:27;;;;;;;42.70;29.75;;;;;;;-2.22;100.00;101707.03;5073304;28;20074;-67
2022/03/03 05:48:52;;;;;;;43.95;30.17;;;;;;;-2.25;100.00;101715.47;5072897;28;20029;-67
2022/03/03 05:51:18;;;;;;;42.22;29.55;;;;;;;-2.28;100.00;101712.69;5073114;28;20020;-67
2022/03/03 05:53:44;;;;;;;42.42;30.08;;;;;;;-2.25;100.00;101710.31;5073111;28;20056;-67
2022/03/03 05:56:10;;;;;;;43.53;30.27;;;;;;;-2.36;100.00;101714.75;5072624;28;20509;-71
2022/03/03 05:58:45;;;;;;;43.45;30.30;;;;;;;-2.40;100.00;101704.94;5071945;28;20040;-73
2022/03/03 06:01:12;;;;;;;43.33;29.85;;;;;;;-2.37;100.00;101712.03;5072758;28;20028;-70
2022/03/03 06:03:38;;;;;;;43.05;30.15;;;;;;;-2.37;100.00;101705.16;5069786;28;20024;-70
2022/03/03 06:06:09;;;;;;;43.60;29.77;;;;;;;-2.38;100.00;101710.25;5073012;28;20035;-71
2022/03/03 06:08:48;;;;;;;42.30;29.15;;;;;;;-2.37;100.00;101701.69;5072971;28;20071;-73
2022/03/03 06:11:17;;;;;;;41.40;30.17;;;;;;;-2.39;100.00;101701.53;5072584;28;20085;-72
2022/03/03 06:13:46;;;;;;;43.78;30.73;;;;;;;-2.42;100.00;101700.44;5072644;28;20024;-72
2022/03/03 06:16:17;;;;;;;45.00;30.50;;;;;;;-2.51;100.00;101704.19;5070163;28;20388;-69
2022/03/03 06:18:47;;;;;;;43.83;31.10;;;;;;;-2.55;100.00;101699.59;5072648;28;20025;-72
2022/03/03 06:21:14;;;;;;;43.60;30.23;;;;;;;-2.51;100.00;101699.00;5072503;28;20036;-73
2022/03/03 06:23:39;;;;;;;43.67;30.23;;;;;;;-2.68;100.00;101703.00;5072399;28;20020;-71
2022/03/03 06:26:10;;;;;;;43.47;30.05;;;;;;;-2.68;100.00;101700.41;5049577;28;20468;-69
2022/03/03 06:28:36;;;;;;;42.65;30.33;;;;;;;-2.77;100.00;101691.06;5071294;28;20414;-69
2022/03/03 06:31:04;;;;;;;45.10;31.08;;;;;;;-2.71;100.00;101707.03;5070718;28;20035;-69
2022/03/03 06:33:29;;;;;;;44.88;31.50;;;;;;;-2.79;100.00;101700.44;5071124;28;20028;-69
2022/03/03 06:35:55;;;;;;;41.42;29.80;;;;;;;-2.78;100.00;101704.78;5070866;28;20025;-69
2022/03/03 06:38:21;;;;;;;41.20;29.45;;;;;;;-2.85;100.00;101706.94;5070624;28;20070;-69
2022/03/03 06:40:46;;;;;;;43.58;31.48;;;;;;;-2.81;100.00;101702.88;5070714;28;20056;-69
2022/03/03 06:43:11;;;;;;;43.65;31.90;;;;;;;-2.83;100.00;101700.19;5070828;28;20024;-69
2022/03/03 06:45:37;;;;;;;45.70;31.73;;;;;;;-2.75;100.00;101702.44;5070519;28;20079;-69
2022/03/03 06:48:04;;;;;;;43.28;30.30;;;;;;;-2.82;100.00;101707.16;5071203;28;20037;-69
2022/03/03 06:50:35;;;;;;;44.35;30.25;;;;;;;-2.75;100.00;101716.28;5070056;28;20041;-71
2022/03/03 06:53:02;;;;;;;44.33;30.73;;;;;;;-2.73;100.00;101712.09;5073730;28;20479;-70
2022/03/03 06:55:28;;;;;;;46.05;31.17;;;;;;;-2.68;100.00;101715.03;5075032;28;20044;-70
2022/03/03 06:57:56;;;;;;;45.55;32.72;;;;;;;-2.63;100.00;101718.84;5074917;28;20082;-70
2022/03/03 07:00:33;;;;;;;45.33;31.98;;;;;;;-2.59;100.00;101728.66;5074506;28;20029;-70
2022/03/03 07:03:01;;;;;;;45.45;32.67;;;;;;;-2.51;100.00;101729.19;5073288;28;20118;-70
2022/03/03 07:05:28;;;;;;;45.20;31.67;;;;;;;-2.48;100.00;101725.09;5074593;28;20082;-70
2022/03/03 07:07:54;;;;;;;44.90;31.73;;;;;;;-2.42;100.00;101724.66;5074209;28;20463;-70
2022/03/03 07:10:24;;;;;;;44.85;32.35;;;;;;;-2.30;100.00;101730.72;5074322;28;20056;-70
2022/03/03 07:12:55;;;;;;;45.97;31.13;;;;;;;-2.27;100.00;101730.03;5075002;28;20070;-68
2022/03/03 07:15:25;;;;;;;45.20;33.00;;;;;;;-2.13;100.00;101738.75;5072974;28;20471;-68
2022/03/03 07:18:00;;;;;;;45.92;33.15;;;;;;;-2.04;100.00;101743.69;5072912;28;20119;-70
2022/03/03 07:20:43;;;;;;;46.63;32.88;;;;;;;-1.86;100.00;101738.91;5073318;28;20029;-70
2022/03/03 07:23:13;;;;;;;;;;;;;;;-1.78;100.00;101738.63;5073779;28;20027;-71
2022/03/03 07:25:47;;;;;;;45.22;33.40;;;;;;;-1.53;100.00;101742.88;5073755;28;20329;-70
2022/03/03 07:28:14;;;;;;;45.17;32.17;;;;;;;-1.42;100.00;101734.09;5073233;28;20029;-71
2022/03/03 07:30:43;;;;;;;44.35;31.55;;;;;;;-1.23;100.00;101744.00;5073684;28;20087;-71
2022/03/03 07:33:18;;;;;;;43.38;31.63;;;;;;;-1.13;100.00;101736.84;5073554;28;20459;-70
2022/03/03 07:35:48;;;;;;;46.85;32.45;;;;;;;-0.89;100.00;101742.72;5074500;28;20040;-70
2022/03/03 07:38:18;;;;;;;43.10;31.10;;;;;;;-0.74;100.00;101745.44;5073395;28;20017;-70
2022/03/03 07:40:43;;;;;;;42.42;31.08;;;;;;;-0.59;100.00;101737.72;5072584;28;20395;-71
2022/03/03 07:43:11;;;;;;;41.75;30.50;;;;;;;-0.34;100.00;101744.50;5074451;28;20017;-71
2022/03/03 07:45:37;;;;;;;41.00;29.75;;;;;;;-0.22;100.00;101734.84;5074154;28;20421;-70
2022/03/03 07:48:03;;;;;;;41.63;30.25;;;;;;;-0.14;100.00;101736.22;5073899;28;20051;-70
2022/03/03 07:50:28;;;;;;;40.10;28.50;;;;;;;0.02;100.00;101734.59;5073193;28;20530;-70
2022/03/03 07:52:54;;;;;;;40.85;28.73;;;;;;;0.17;100.00;101735.50;5073669;28;20103;-70
2022/03/03 07:55:21;;;;;;;40.35;28.63;;;;;;;0.31;100.00;101739.84;5073439;28;20158;-70
2022/03/03 07:58:01;;;;;;;41.50;28.58;;;;;;;0.53;100.00;101746.34;5073524;28;20518;-71
2022/03/03 08:00:29;;;;;;;42.00;29.45;;;;;;;0.68;100.00;101738.53;5073050;28;20025;-71
2022/03/03 08:02:59;;;;;;;40.47;28.60;;;;;;;0.91;100.00;101750.28;5070770;28;20020;-71
2022/03/03 08:05:27;;;;;;;40.97;28.55;;;;;;;1.13;100.00;101748.91;5073955;28;20216;-70
2022/03/03 08:07:55;;;;;;;40.55;28.23;;;;;;;1.36;99.52;101755.44;5073493;28;20040;-70
2022/03/03 08:10:24;;;;;;;40.17;27.27;;;;;;;1.56;97.12;101748.75;5071055;28;20107;-71
2022/03/03 08:12:57;;;;;;;39.35;27.38;;;;;;;1.74;95.11;101747.13;5070655;28;20464;-71
2022/03/03 08:15:22;;;;;;;36.90;26.17;;;;;;;1.92;92.84;101747.25;5071791;28;20032;-72
2022/03/03 08:17:52;;;;;;;38.40;26.80;;;;;;;2.14;91.87;101752.69;5072857;28;20545;-69
2022/03/03 08:20:18;;;;;;;37.85;26.08;;;;;;;2.32;88.22;101750.19;5073394;28;20047;-69
2022/03/03 08:22:43;;;;;;;36.47;25.05;;;;;;;2.54;87.16;101749.56;5073001;28;20463;-70
2022/03/03 08:25:10;;;;;;;35.80;24.92;;;;;;;2.77;86.05;101743.81;5072826;28;20114;-69
2022/03/03 08:27:37;;;;;;;34.75;23.70;;;;;;;2.91;79.10;101744.50;5071797;28;20115;-71
2022/03/03 08:30:04;;;;;;;35.35;22.52;;;;;;;3.11;77.58;101734.13;5072330;28;20024;-69
2022/03/03 08:32:34;;;;;;;35.53;23.08;;;;;;;3.24;78.02;101733.91;5073289;28;20425;-71
2022/03/03 08:35:07;;;;;;;35.25;22.90;;;;;;;3.29;74.70;101734.13;5071529;28;20043;-70
2022/03/03 08:38:02;;;;;;;33.95;22.38;;;;;;;3.27;73.93;101731.44;5072835;28;20033;-69
2022/03/03 08:40:29;;;;;;;34.90;24.25;;;;;;;3.27;71.95;101728.81;5072598;28;20425;-70
2022/03/03 08:42:59;;;;;;;35.40;23.65;;;;;;;3.31;73.02;101735.09;5073092;28;20021;-69
2022/03/03 08:45:29;;;;;;;35.22;23.15;;;;;;;3.49;71.37;101733.38;5070855;28;20029;-69
2022/03/03 08:48:02;;;;;;;35.97;23.60;;;;;;;3.65;70.72;101741.91;5072226;28;20242;-69
2022/03/03 08:50:28;;;;;;;35.25;22.58;;;;;;;3.71;69.60;101743.94;5069639;28;20086;-70
2022/03/03 08:52:56;;;;;;;34.38;23.40;;;;;;;3.88;70.80;101744.72;5071798;28;20040;-68
2022/03/03 08:55:22;;;;;;;33.25;22.13;;;;;;;4.09;69.12;101737.84;5072892;28;20040;-68
2022/03/03 08:57:48;;;;;;;33.42;21.90;;;;;;;4.26;66.77;101733.34;5072708;28;20060;-67
2022/03/03 09:00:14;;;;;;;34.47;22.63;;;;;;;4.59;66.01;101737.38;5072382;28;20060;-69
2022/03/03 09:02:43;;;;;;;34.22;21.63;;;;;;;4.82;65.36;101740.97;5072895;28;20024;-69
2022/03/03 09:05:10;;;;;;;32.13;21.58;;;;;;;5.34;62.28;101743.09;5073787;28;20024;-68
2022/03/03 09:07:36;;;;;;;33.22;21.42;;;;;;;5.62;60.25;101738.97;5073937;28;20032;-68
2022/03/03 09:10:02;;;;;;;33.38;21.10;;;;;;;6.00;59.38;101749.16;5073813;28;20472;-68
2022/03/03 09:12:27;;;;;;;33.05;21.67;;;;;;;6.12;57.78;101741.75;5073138;28;20077;-68
2022/03/03 09:14:52;;;;;;;33.25;21.15;;;;;;;6.36;58.31;101748.72;5073764;28;20027;-68
2022/03/03 09:17:18;;;;;;;31.60;20.30;;;;;;;6.58;55.54;101739.88;5073787;28;20070;-68
2022/03/03 09:19:44;;;;;;;31.95;20.02;;;;;;;6.63;54.86;101736.56;5071931;28;20040;-68
2022/03/03 09:22:09;;;;;;;31.02;19.23;;;;;;;6.57;54.62;101739.00;5073673;28;20031;-68
2022/03/03 09:24:34;;;;;;;32.42;20.67;;;;;;;6.55;55.96;101735.44;5068962;28;20039;-69
2022/03/03 09:27:00;;;;;;;31.58;19.95;;;;;;;6.66;54.82;101734.91;5072366;28;20048;-70
2022/03/03 09:29:26;;;;;;;31.73;19.98;;;;;;;6.93;54.08;101724.41;5072098;28;20107;-71
2022/03/03 09:31:52;;;;;;;32.50;20.73;;;;;;;7.36;53.50;101724.94;5071378;28;20070;-70
2022/03/03 09:34:17;;;;;;;32.35;20.60;;;;;;;7.62;51.99;101728.38;5071739;28;20024;-69
2022/03/03 09:36:43;;;;;;;31.23;20.27;;;;;;;7.67;50.65;101722.41;5071651;28;20073;-69
2022/03/03 09:39:08;;;;;;;32.78;20.98;;;;;;;7.68;52.39;101724.16;5071252;28;20020;-70
2022/03/03 09:41:34;;;;;;;32.83;20.83;;;;;;;7.86;50.88;101722.94;5070870;28;20036;-71
2022/03/03 09:43:59;;;;;;;31.70;20.55;;;;;;;8.21;51.62;101723.06;5071397;28;20048;-72
2022/03/03 09:46:25;;;;;;;32.92;20.67;;;;;;;8.59;49.92;101728.53;5071595;28;20043;-71
2022/03/03 09:48:51;;;;;;;33.13;21.05;;;;;;;8.92;48.72;101717.06;5071327;28;20494;-71
2022/03/03 09:51:17;;;;;;;33.63;21.48;;;;;;;9.20;48.11;101709.81;5071241;28;20037;-71
2022/03/03 09:53:43;;;;;;;32.05;20.85;;;;;;;9.74;46.63;101717.22;5071031;28;20379;-68
2022/03/03 09:56:09;;;;;;;31.65;20.48;;;;;;;10.37;45.46;101714.06;5071685;28;20430;-68
2022/03/03 09:58:34;;;;;;;34.20;21.15;;;;;;;10.63;43.68;101712.81;5071740;28;20040;-68
2022/03/03 10:01:00;;;;;;;32.30;20.83;;;;;;;11.13;42.53;101718.94;5071307;28;20031;-68
2022/03/03 10:03:33;;;;;;;33.33;20.80;;;;;;;11.72;41.49;101720.69;5070617;28;20063;-68
2022/03/03 10:06:00;;;;;;;208.35;39.05;;;;;;;12.11;39.74;101723.88;5071160;28;20028;-68
2022/03/03 10:08:27;;;;;;;181.32;34.72;;;;;;;12.65;39.55;101720.03;5071007;28;20403;-68
2022/03/03 10:10:58;;;;;;;36.42;20.20;;;;;;;13.16;37.29;101720.44;5071095;28;20025;-68
2022/03/03 10:13:24;;;;;;;33.53;20.60;;;;;;;13.70;36.88;101720.88;5070868;28;20025;-67
2022/03/03 10:15:54;;;;;;;33.40;19.83;;;;;;;13.72;35.25;101713.78;5070942;28;20059;-68
2022/03/03 10:18:21;;;;;;;30.95;19.33;;;;;;;14.10;34.55;101718.38;5071382;28;20395;-68
2022/03/03 10:20:54;;;;;;;32.45;19.83;;;;;;;14.23;33.90;101711.31;5071413;28;20035;-67
2022/03/03 10:23:28;;;;;;;29.92;19.38;;;;;;;14.46;33.97;101705.19;5070466;28;20067;-67
2022/03/03 10:25:56;;;;;;;30.38;19.92;;;;;;;14.93;32.37;101715.00;5069340;28;20025;-67
2022/03/03 10:28:30;;;;;;;29.60;19.45;;;;;;;15.47;33.04;101714.06;5072123;28;20096;-68
2022/03/03 10:31:09;;;;;;;30.98;19.88;;;;;;;15.82;32.14;101706.00;5072521;28;20064;-67
2022/03/03 10:33:40;;;;;;;29.65;19.15;;;;;;;15.98;30.33;101698.81;5072929;28;20058;-67
2022/03/03 10:36:13;;;;;;;30.98;20.17;;;;;;;16.16;29.75;101695.19;5072484;28;20028;-67
2022/03/03 10:38:44;;;;;;;29.83;19.27;;;;;;;16.46;30.03;101692.34;5072342;28;20620;-67
2022/03/03 10:41:28;;;;;;;29.92;19.02;;;;;;;17.01;30.24;101694.59;5072310;28;20074;-68
2022/03/03 10:43:53;;;;;;;28.30;18.25;;;;;;;17.34;27.90;101691.63;5070349;28;20044;-67
2022/03/03 10:46:19;;;;;;;29.63;18.85;;;;;;;17.66;27.85;101701.94;5072480;28;20025;-68
2022/03/03 10:48:44;;;;;;;28.45;17.83;;;;;;;17.85;27.76;101694.59;5072332;28;20071;-69
2022/03/03 10:51:14;;;;;;;28.23;18.23;;;;;;;18.00;27.31;101698.00;5072381;28;20056;-68
2022/03/03 10:53:39;;;;;;;28.08;18.05;;;;;;;18.12;26.43;101689.84;5068782;28;20028;-69
2022/03/03 10:56:12;;;;;;;27.90;18.30;;;;;;;18.63;26.99;101686.41;5070353;28;20094;-69
2022/03/03 10:58:52;;;;;;;28.33;18.40;;;;;;;19.04;25.72;101689.34;5070612;28;20025;-69
2022/03/03 11:01:20;;;;;;;27.27;16.95;;;;;;;18.82;24.61;101682.50;5068419;28;20021;-71
2022/03/03 11:03:50;;;;;;;28.10;17.65;;;;;;;18.49;25.46;101680.38;5070439;28;20025;-70
2022/03/03 11:06:26;;;;;;;27.23;16.40;;;;;;;18.63;24.74;101676.56;5068973;28;20036;-71
2022/03/03 11:08:53;;;;;;;26.80;16.27;;;;;;;18.90;25.15;101676.16;5069859;28;20103;-71